Bayou Petite Prairie, Louisiana
Current Conditions -  °F | °C
As of 11:35 PM on Monday 26 Jan 2015 (Local Time) from KOPL Reporting Station
Clear Clear  
Wind Chill: 46°   Ceiling: Unl
Heat Index: 46°   Visibility: 10mi
Dew Point: 39°   Wind: 3mph
Humidity: 76%   Direction: 220°SW
Pressure: 30.11"   Gusts: NA
Location:  30.7315°N, 91.9765°W
Report Text: KOPL 270535Z AUTO 22003KT 10SM CLR 08/04 A3011 RMK AO2 T00790039
Loading
Personal Weather Stations






























Interactive Weather Map New forecast layout! Learn more

10-Day Weather Forecast

Advertisements
Track Severe Weather on mobile